首页
METAR-TAF:

METAR-TAF

机场 :

沃特福德, 爱尔兰

纬度: 52-11-14N, 经度: 7-05-13W, 海拔: 36米

当前天气观测

该预报发布于2小时和55分钟前的20:30 UTC
风速7节,风向东北,在东转东北之间变化
温度 12°C
湿度 62%
气压 1014 hPa
能见度10公里或以上
多云层高于4200英尺

METAR: EIWF 032030Z 04007KT 360V070 9999 BKN042 12/05 Q1014

时间: 00:25 (23:25 UTC)

预报

该预报发布于3小时和25分钟前的20:00 UTC
预报有效从03日的 21点(UTC)到 04日的 06点(UTC)
风速9节,风向东北
能见度10公里或以上
少量云层高于2000英尺
多云层高于4000英尺
成为
从 03日的 22点(UTC)到 03日的 24点(UTC)
风速8节,风向北转西北

TAF: EIWF 032000Z 0321/0406 04009KT 9999 FEW020 BKN040 BECMG 0322/0324 34008KT

超过4000个机场的气象观测和天气预报(METAR&TAF报告)。

可查询的气象台以黄色和红色小点在地图上表示。

将鼠标移到小点上方,可查看气象台名称。

然后点击查看天气观测和预报。

如需切换地图:点击带黑十字的绿色按钮放大地图;点击带横线的绿色按钮缩小地图;或者点击绿色箭头查看邻近地区的地图。


METAR-TAF: